sensor_id;sensor_type;location;lat;lon;timestamp;P1;durP1;ratioP1;P2;durP2;ratioP2
8060;SDS011;4073;42.626;25.386;2023-07-02T00:00:55;9.73;;;8.87;;
8060;SDS011;4073;42.626;25.386;2023-07-02T00:03:20;9.70;;;8.70;;
8060;SDS011;4073;42.626;25.386;2023-07-02T00:05:47;12.10;;;8.77;;
8060;SDS011;4073;42.626;25.386;2023-07-02T00:08:15;9.43;;;8.43;;
8060;SDS011;4073;42.626;25.386;2023-07-02T00:10:42;9.20;;;8.37;;
8060;SDS011;4073;42.626;25.386;2023-07-02T00:13:08;9.33;;;8.23;;
8060;SDS011;4073;42.626;25.386;2023-07-02T00:15:33;9.70;;;8.80;;
8060;SDS011;4073;42.626;25.386;2023-07-02T00:17:59;10.53;;;9.13;;
8060;SDS011;4073;42.626;25.386;2023-07-02T00:20:24;10.03;;;9.00;;
8060;SDS011;4073;42.626;25.386;2023-07-02T00:22:50;10.17;;;9.27;;
8060;SDS011;4073;42.626;25.386;2023-07-02T00:25:15;10.90;;;9.90;;
8060;SDS011;4073;42.626;25.386;2023-07-02T00:27:41;10.47;;;9.37;;
8060;SDS011;4073;42.626;25.386;2023-07-02T00:30:07;11.10;;;10.07;;
8060;SDS011;4073;42.626;25.386;2023-07-02T00:32:33;10.00;;;9.03;;
8060;SDS011;4073;42.626;25.386;2023-07-02T00:34:58;10.27;;;9.37;;
8060;SDS011;4073;42.626;25.386;2023-07-02T00:37:24;11.40;;;10.30;;
8060;SDS011;4073;42.626;25.386;2023-07-02T00:39:50;10.40;;;9.50;;
8060;SDS011;4073;42.626;25.386;2023-07-02T00:42:15;10.10;;;9.30;;
8060;SDS011;4073;42.626;25.386;2023-07-02T00:44:41;13.90;;;9.50;;
8060;SDS011;4073;42.626;25.386;2023-07-02T00:47:10;11.07;;;9.77;;
8060;SDS011;4073;42.626;25.386;2023-07-02T00:49:36;10.40;;;9.30;;
8060;SDS011;4073;42.626;25.386;2023-07-02T00:52:02;12.90;;;10.00;;
8060;SDS011;4073;42.626;25.386;2023-07-02T00:54:28;11.13;;;8.30;;
8060;SDS011;4073;42.626;25.386;2023-07-02T00:56:54;9.90;;;8.90;;
8060;SDS011;4073;42.626;25.386;2023-07-02T00:59:20;10.67;;;9.57;;
8060;SDS011;4073;42.626;25.386;2023-07-02T01:01:46;10.57;;;9.50;;
8060;SDS011;4073;42.626;25.386;2023-07-02T01:04:18;10.43;;;9.33;;
8060;SDS011;4073;42.626;25.386;2023-07-02T01:06:43;9.37;;;8.57;;
8060;SDS011;4073;42.626;25.386;2023-07-02T01:09:10;10.03;;;9.07;;
8060;SDS011;4073;42.626;25.386;2023-07-02T01:14:33;9.77;;;8.87;;
8060;SDS011;4073;42.626;25.386;2023-07-02T01:17:07;10.53;;;9.63;;
8060;SDS011;4073;42.626;25.386;2023-07-02T01:22:16;9.80;;;8.80;;
8060;SDS011;4073;42.626;25.386;2023-07-02T01:24:43;11.20;;;10.10;;
8060;SDS011;4073;42.626;25.386;2023-07-02T01:27:09;10.63;;;9.30;;
8060;SDS011;4073;42.626;25.386;2023-07-02T01:29:35;12.97;;;9.50;;
8060;SDS011;4073;42.626;25.386;2023-07-02T01:32:04;10.00;;;9.10;;
8060;SDS011;4073;42.626;25.386;2023-07-02T01:34:30;13.67;;;10.37;;
8060;SDS011;4073;42.626;25.386;2023-07-02T01:36:55;10.67;;;9.60;;
8060;SDS011;4073;42.626;25.386;2023-07-02T01:39:21;10.87;;;9.57;;
8060;SDS011;4073;42.626;25.386;2023-07-02T01:41:50;10.30;;;9.30;;
8060;SDS011;4073;42.626;25.386;2023-07-02T01:44:17;10.73;;;9.63;;
8060;SDS011;4073;42.626;25.386;2023-07-02T01:46:43;11.83;;;9.70;;
8060;SDS011;4073;42.626;25.386;2023-07-02T01:49:09;11.60;;;10.50;;
8060;SDS011;4073;42.626;25.386;2023-07-02T01:51:34;11.30;;;10.30;;
8060;SDS011;4073;42.626;25.386;2023-07-02T01:54:00;11.20;;;9.80;;
8060;SDS011;4073;42.626;25.386;2023-07-02T01:56:26;11.13;;;10.00;;
8060;SDS011;4073;42.626;25.386;2023-07-02T01:58:51;10.73;;;9.73;;
8060;SDS011;4073;42.626;25.386;2023-07-02T02:01:17;11.60;;;10.47;;
8060;SDS011;4073;42.626;25.386;2023-07-02T02:03:43;10.33;;;9.43;;
8060;SDS011;4073;42.626;25.386;2023-07-02T02:06:08;10.53;;;9.63;;
8060;SDS011;4073;42.626;25.386;2023-07-02T02:08:34;10.83;;;9.87;;
8060;SDS011;4073;42.626;25.386;2023-07-02T02:10:59;10.50;;;9.60;;
8060;SDS011;4073;42.626;25.386;2023-07-02T02:13:25;10.57;;;9.47;;
8060;SDS011;4073;42.626;25.386;2023-07-02T02:15:51;10.83;;;9.73;;
8060;SDS011;4073;42.626;25.386;2023-07-02T02:18:17;10.43;;;9.53;;
8060;SDS011;4073;42.626;25.386;2023-07-02T02:20:42;11.23;;;10.13;;
8060;SDS011;4073;42.626;25.386;2023-07-02T02:23:07;10.93;;;9.83;;
8060;SDS011;4073;42.626;25.386;2023-07-02T02:25:33;13.23;;;9.67;;
8060;SDS011;4073;42.626;25.386;2023-07-02T02:27:58;11.03;;;10.03;;
8060;SDS011;4073;42.626;25.386;2023-07-02T02:30:24;10.70;;;9.70;;
8060;SDS011;4073;42.626;25.386;2023-07-02T02:32:49;10.83;;;9.70;;
8060;SDS011;4073;42.626;25.386;2023-07-02T02:35:15;11.17;;;10.23;;
8060;SDS011;4073;42.626;25.386;2023-07-02T02:37:40;10.40;;;9.47;;
8060;SDS011;4073;42.626;25.386;2023-07-02T02:40:06;10.40;;;9.40;;
8060;SDS011;4073;42.626;25.386;2023-07-02T02:42:34;10.20;;;9.30;;
8060;SDS011;4073;42.626;25.386;2023-07-02T02:45:00;10.50;;;9.40;;
8060;SDS011;4073;42.626;25.386;2023-07-02T02:47:25;10.77;;;9.67;;
8060;SDS011;4073;42.626;25.386;2023-07-02T02:49:51;10.63;;;9.63;;
8060;SDS011;4073;42.626;25.386;2023-07-02T02:52:16;9.67;;;8.77;;
8060;SDS011;4073;42.626;25.386;2023-07-02T02:54:43;9.57;;;8.77;;
8060;SDS011;4073;42.626;25.386;2023-07-02T02:57:08;9.40;;;8.60;;
8060;SDS011;4073;42.626;25.386;2023-07-02T02:59:34;9.40;;;8.60;;
8060;SDS011;4073;42.626;25.386;2023-07-02T03:01:59;10.27;;;9.17;;
8060;SDS011;4073;42.626;25.386;2023-07-02T03:04:24;10.47;;;9.47;;
8060;SDS011;4073;42.626;25.386;2023-07-02T03:06:50;10.60;;;8.50;;
8060;SDS011;4073;42.626;25.386;2023-07-02T03:09:17;10.03;;;9.00;;
8060;SDS011;4073;42.626;25.386;2023-07-02T03:11:44;9.67;;;8.87;;
8060;SDS011;4073;42.626;25.386;2023-07-02T03:14:10;11.13;;;10.03;;
8060;SDS011;4073;42.626;25.386;2023-07-02T03:16:35;10.17;;;9.27;;
8060;SDS011;4073;42.626;25.386;2023-07-02T03:19:02;10.67;;;9.63;;
8060;SDS011;4073;42.626;25.386;2023-07-02T03:21:28;10.27;;;9.27;;
8060;SDS011;4073;42.626;25.386;2023-07-02T03:23:55;10.77;;;9.67;;
8060;SDS011;4073;42.626;25.386;2023-07-02T03:26:20;10.67;;;9.73;;
8060;SDS011;4073;42.626;25.386;2023-07-02T03:28:47;13.57;;;9.73;;
8060;SDS011;4073;42.626;25.386;2023-07-02T03:31:12;9.93;;;9.03;;
8060;SDS011;4073;42.626;25.386;2023-07-02T03:33:37;10.03;;;9.13;;
8060;SDS011;4073;42.626;25.386;2023-07-02T03:36:03;13.20;;;11.77;;
8060;SDS011;4073;42.626;25.386;2023-07-02T03:38:29;13.93;;;12.50;;
8060;SDS011;4073;42.626;25.386;2023-07-02T03:40:54;10.50;;;9.43;;
8060;SDS011;4073;42.626;25.386;2023-07-02T03:43:19;12.40;;;8.43;;
8060;SDS011;4073;42.626;25.386;2023-07-02T03:45:45;10.40;;;9.50;;
8060;SDS011;4073;42.626;25.386;2023-07-02T03:48:10;11.27;;;10.27;;
8060;SDS011;4073;42.626;25.386;2023-07-02T03:50:36;11.53;;;9.70;;
8060;SDS011;4073;42.626;25.386;2023-07-02T03:53:01;10.53;;;9.53;;
8060;SDS011;4073;42.626;25.386;2023-07-02T03:55:27;9.80;;;8.97;;
8060;SDS011;4073;42.626;25.386;2023-07-02T03:57:53;10.20;;;9.20;;
8060;SDS011;4073;42.626;25.386;2023-07-02T04:00:18;10.90;;;9.90;;
8060;SDS011;4073;42.626;25.386;2023-07-02T04:02:43;9.73;;;8.93;;
8060;SDS011;4073;42.626;25.386;2023-07-02T04:05:09;10.50;;;9.47;;
8060;SDS011;4073;42.626;25.386;2023-07-02T04:07:34;11.07;;;9.80;;
8060;SDS011;4073;42.626;25.386;2023-07-02T04:10:00;10.80;;;9.53;;
8060;SDS011;4073;42.626;25.386;2023-07-02T04:12:26;10.97;;;9.90;;
8060;SDS011;4073;42.626;25.386;2023-07-02T04:14:52;11.43;;;10.23;;
8060;SDS011;4073;42.626;25.386;2023-07-02T04:17:17;11.23;;;9.93;;
8060;SDS011;4073;42.626;25.386;2023-07-02T04:19:43;12.83;;;10.93;;
8060;SDS011;4073;42.626;25.386;2023-07-02T04:22:08;12.00;;;10.03;;
8060;SDS011;4073;42.626;25.386;2023-07-02T04:24:34;11.93;;;10.73;;
8060;SDS011;4073;42.626;25.386;2023-07-02T04:26:59;12.00;;;10.70;;
8060;SDS011;4073;42.626;25.386;2023-07-02T04:29:25;13.57;;;10.80;;
8060;SDS011;4073;42.626;25.386;2023-07-02T04:31:50;12.57;;;11.40;;
8060;SDS011;4073;42.626;25.386;2023-07-02T04:34:15;12.53;;;11.33;;
8060;SDS011;4073;42.626;25.386;2023-07-02T04:36:41;13.70;;;10.83;;
8060;SDS011;4073;42.626;25.386;2023-07-02T04:39:08;13.00;;;11.73;;
8060;SDS011;4073;42.626;25.386;2023-07-02T04:41:33;14.40;;;12.20;;
8060;SDS011;4073;42.626;25.386;2023-07-02T04:43:59;12.17;;;11.07;;
8060;SDS011;4073;42.626;25.386;2023-07-02T04:46:24;13.13;;;11.70;;
8060;SDS011;4073;42.626;25.386;2023-07-02T04:48:50;12.37;;;11.07;;
8060;SDS011;4073;42.626;25.386;2023-07-02T04:51:15;13.63;;;11.30;;
8060;SDS011;4073;42.626;25.386;2023-07-02T04:53:41;12.50;;;11.33;;
8060;SDS011;4073;42.626;25.386;2023-07-02T04:56:06;12.30;;;10.63;;
8060;SDS011;4073;42.626;25.386;2023-07-02T04:58:32;11.80;;;10.80;;
8060;SDS011;4073;42.626;25.386;2023-07-02T05:00:57;11.83;;;10.70;;
8060;SDS011;4073;42.626;25.386;2023-07-02T05:03:22;12.73;;;11.67;;
8060;SDS011;4073;42.626;25.386;2023-07-02T05:05:48;13.40;;;12.13;;
8060;SDS011;4073;42.626;25.386;2023-07-02T05:08:14;14.43;;;13.07;;
8060;SDS011;4073;42.626;25.386;2023-07-02T05:10:39;12.83;;;11.57;;
8060;SDS011;4073;42.626;25.386;2023-07-02T05:13:05;14.10;;;12.80;;
8060;SDS011;4073;42.626;25.386;2023-07-02T05:15:30;12.80;;;11.63;;
8060;SDS011;4073;42.626;25.386;2023-07-02T05:17:55;13.00;;;11.83;;
8060;SDS011;4073;42.626;25.386;2023-07-02T05:20:21;13.40;;;12.20;;
8060;SDS011;4073;42.626;25.386;2023-07-02T05:22:46;14.27;;;12.87;;
8060;SDS011;4073;42.626;25.386;2023-07-02T05:25:12;14.37;;;12.87;;
8060;SDS011;4073;42.626;25.386;2023-07-02T05:27:38;13.43;;;12.33;;
8060;SDS011;4073;42.626;25.386;2023-07-02T05:30:03;13.23;;;11.90;;
8060;SDS011;4073;42.626;25.386;2023-07-02T05:32:29;11.83;;;10.73;;
8060;SDS011;4073;42.626;25.386;2023-07-02T05:34:54;12.33;;;11.13;;
8060;SDS011;4073;42.626;25.386;2023-07-02T05:37:20;11.00;;;10.00;;
8060;SDS011;4073;42.626;25.386;2023-07-02T05:39:46;11.63;;;10.53;;
8060;SDS011;4073;42.626;25.386;2023-07-02T05:42:12;11.80;;;10.67;;
8060;SDS011;4073;42.626;25.386;2023-07-02T05:44:37;12.33;;;11.23;;
8060;SDS011;4073;42.626;25.386;2023-07-02T05:47:03;12.23;;;11.10;;
8060;SDS011;4073;42.626;25.386;2023-07-02T05:49:28;11.50;;;10.50;;
8060;SDS011;4073;42.626;25.386;2023-07-02T05:51:53;12.10;;;10.83;;
8060;SDS011;4073;42.626;25.386;2023-07-02T05:54:19;12.50;;;11.20;;
8060;SDS011;4073;42.626;25.386;2023-07-02T05:56:45;13.57;;;12.13;;
8060;SDS011;4073;42.626;25.386;2023-07-02T05:59:10;14.67;;;13.10;;
8060;SDS011;4073;42.626;25.386;2023-07-02T06:01:37;11.43;;;10.40;;
8060;SDS011;4073;42.626;25.386;2023-07-02T06:04:03;11.33;;;10.33;;
8060;SDS011;4073;42.626;25.386;2023-07-02T06:06:28;14.97;;;13.57;;
8060;SDS011;4073;42.626;25.386;2023-07-02T06:08:54;13.17;;;11.00;;
8060;SDS011;4073;42.626;25.386;2023-07-02T06:11:19;11.27;;;10.07;;
8060;SDS011;4073;42.626;25.386;2023-07-02T06:13:44;10.17;;;9.23;;
8060;SDS011;4073;42.626;25.386;2023-07-02T06:16:10;10.67;;;9.67;;
8060;SDS011;4073;42.626;25.386;2023-07-02T06:18:35;10.23;;;8.97;;
8060;SDS011;4073;42.626;25.386;2023-07-02T06:21:01;11.63;;;9.63;;
8060;SDS011;4073;42.626;25.386;2023-07-02T06:23:26;10.17;;;9.27;;
8060;SDS011;4073;42.626;25.386;2023-07-02T06:25:54;10.23;;;9.23;;
8060;SDS011;4073;42.626;25.386;2023-07-02T06:28:24;11.50;;;9.33;;
8060;SDS011;4073;42.626;25.386;2023-07-02T06:30:51;10.43;;;9.33;;
8060;SDS011;4073;42.626;25.386;2023-07-02T06:33:16;13.80;;;11.67;;
8060;SDS011;4073;42.626;25.386;2023-07-02T06:35:41;12.50;;;10.73;;
8060;SDS011;4073;42.626;25.386;2023-07-02T06:38:07;11.13;;;9.50;;
8060;SDS011;4073;42.626;25.386;2023-07-02T06:40:32;9.77;;;8.87;;
8060;SDS011;4073;42.626;25.386;2023-07-02T06:42:58;9.07;;;8.00;;
8060;SDS011;4073;42.626;25.386;2023-07-02T06:45:23;9.90;;;8.10;;
8060;SDS011;4073;42.626;25.386;2023-07-02T06:47:49;9.97;;;8.97;;
8060;SDS011;4073;42.626;25.386;2023-07-02T06:50:15;11.33;;;9.43;;
8060;SDS011;4073;42.626;25.386;2023-07-02T06:52:40;10.27;;;9.27;;
8060;SDS011;4073;42.626;25.386;2023-07-02T06:55:06;11.67;;;10.60;;
8060;SDS011;4073;42.626;25.386;2023-07-02T06:57:31;12.73;;;11.60;;
8060;SDS011;4073;42.626;25.386;2023-07-02T06:59:57;14.97;;;12.97;;
8060;SDS011;4073;42.626;25.386;2023-07-02T07:02:24;15.90;;;14.37;;
8060;SDS011;4073;42.626;25.386;2023-07-02T07:04:49;15.93;;;14.43;;
8060;SDS011;4073;42.626;25.386;2023-07-02T07:07:15;15.40;;;13.87;;
8060;SDS011;4073;42.626;25.386;2023-07-02T07:09:40;15.50;;;14.00;;
8060;SDS011;4073;42.626;25.386;2023-07-02T07:12:06;14.03;;;12.70;;
8060;SDS011;4073;42.626;25.386;2023-07-02T07:14:32;15.07;;;13.67;;
8060;SDS011;4073;42.626;25.386;2023-07-02T07:16:57;14.77;;;13.43;;
8060;SDS011;4073;42.626;25.386;2023-07-02T07:19:23;15.40;;;13.97;;
8060;SDS011;4073;42.626;25.386;2023-07-02T07:21:48;13.50;;;12.10;;
8060;SDS011;4073;42.626;25.386;2023-07-02T07:24:13;14.47;;;13.03;;
8060;SDS011;4073;42.626;25.386;2023-07-02T07:26:39;15.30;;;13.73;;
8060;SDS011;4073;42.626;25.386;2023-07-02T07:29:04;16.03;;;14.33;;
8060;SDS011;4073;42.626;25.386;2023-07-02T07:31:30;15.87;;;14.07;;
8060;SDS011;4073;42.626;25.386;2023-07-02T07:33:55;15.83;;;14.27;;
8060;SDS011;4073;42.626;25.386;2023-07-02T07:36:20;15.67;;;14.20;;
8060;SDS011;4073;42.626;25.386;2023-07-02T07:38:46;17.53;;;15.33;;
8060;SDS011;4073;42.626;25.386;2023-07-02T07:41:11;12.17;;;11.07;;
8060;SDS011;4073;42.626;25.386;2023-07-02T07:43:37;13.40;;;12.20;;
8060;SDS011;4073;42.626;25.386;2023-07-02T07:46:02;14.67;;;12.67;;
8060;SDS011;4073;42.626;25.386;2023-07-02T07:48:28;12.37;;;11.13;;
8060;SDS011;4073;42.626;25.386;2023-07-02T07:50:53;13.50;;;12.23;;
8060;SDS011;4073;42.626;25.386;2023-07-02T07:53:19;13.03;;;11.23;;
8060;SDS011;4073;42.626;25.386;2023-07-02T07:55:44;12.90;;;11.60;;
8060;SDS011;4073;42.626;25.386;2023-07-02T07:58:10;13.20;;;12.03;;
8060;SDS011;4073;42.626;25.386;2023-07-02T08:00:35;12.23;;;11.13;;
8060;SDS011;4073;42.626;25.386;2023-07-02T08:03:01;13.40;;;12.30;;
8060;SDS011;4073;42.626;25.386;2023-07-02T08:05:27;12.87;;;10.90;;
8060;SDS011;4073;42.626;25.386;2023-07-02T08:07:53;12.40;;;11.20;;
8060;SDS011;4073;42.626;25.386;2023-07-02T08:10:18;13.87;;;12.47;;
8060;SDS011;4073;42.626;25.386;2023-07-02T08:12:44;13.70;;;12.40;;
8060;SDS011;4073;42.626;25.386;2023-07-02T08:15:12;13.33;;;12.23;;
8060;SDS011;4073;42.626;25.386;2023-07-02T08:17:37;13.53;;;12.23;;
8060;SDS011;4073;42.626;25.386;2023-07-02T08:20:03;15.10;;;13.70;;
8060;SDS011;4073;42.626;25.386;2023-07-02T08:22:35;13.90;;;12.50;;
8060;SDS011;4073;42.626;25.386;2023-07-02T08:25:01;14.07;;;12.87;;
8060;SDS011;4073;42.626;25.386;2023-07-02T08:27:27;15.73;;;14.07;;
8060;SDS011;4073;42.626;25.386;2023-07-02T08:29:52;15.03;;;13.53;;
8060;SDS011;4073;42.626;25.386;2023-07-02T08:32:18;14.37;;;13.07;;
8060;SDS011;4073;42.626;25.386;2023-07-02T08:34:43;14.30;;;13.10;;
8060;SDS011;4073;42.626;25.386;2023-07-02T08:37:09;13.10;;;11.87;;
8060;SDS011;4073;42.626;25.386;2023-07-02T08:39:34;14.23;;;12.83;;
8060;SDS011;4073;42.626;25.386;2023-07-02T08:42:02;13.77;;;12.57;;
8060;SDS011;4073;42.626;25.386;2023-07-02T08:44:28;13.20;;;12.00;;
8060;SDS011;4073;42.626;25.386;2023-07-02T08:46:53;13.77;;;12.37;;
8060;SDS011;4073;42.626;25.386;2023-07-02T08:49:21;12.50;;;11.40;;
8060;SDS011;4073;42.626;25.386;2023-07-02T08:51:46;11.90;;;10.80;;
8060;SDS011;4073;42.626;25.386;2023-07-02T08:54:12;13.33;;;12.13;;
8060;SDS011;4073;42.626;25.386;2023-07-02T08:56:39;13.37;;;12.07;;
8060;SDS011;4073;42.626;25.386;2023-07-02T08:59:08;13.10;;;11.90;;
8060;SDS011;4073;42.626;25.386;2023-07-02T09:01:44;11.87;;;10.70;;
8060;SDS011;4073;42.626;25.386;2023-07-02T09:04:14;14.87;;;13.13;;
8060;SDS011;4073;42.626;25.386;2023-07-02T09:06:41;14.73;;;13.23;;
8060;SDS011;4073;42.626;25.386;2023-07-02T09:09:06;22.73;;;13.53;;
8060;SDS011;4073;42.626;25.386;2023-07-02T09:11:32;19.40;;;12.63;;
8060;SDS011;4073;42.626;25.386;2023-07-02T09:13:58;13.17;;;11.77;;
8060;SDS011;4073;42.626;25.386;2023-07-02T09:16:26;10.93;;;9.63;;
8060;SDS011;4073;42.626;25.386;2023-07-02T09:19:00;10.30;;;9.40;;
8060;SDS011;4073;42.626;25.386;2023-07-02T09:24:19;9.63;;;8.27;;
8060;SDS011;4073;42.626;25.386;2023-07-02T09:26:47;14.87;;;11.70;;
8060;SDS011;4073;42.626;25.386;2023-07-02T09:29:29;8.67;;;7.90;;
8060;SDS011;4073;42.626;25.386;2023-07-02T09:32:00;13.03;;;9.20;;
8060;SDS011;4073;42.626;25.386;2023-07-02T09:34:31;11.87;;;10.67;;
8060;SDS011;4073;42.626;25.386;2023-07-02T09:36:58;8.90;;;8.20;;
8060;SDS011;4073;42.626;25.386;2023-07-02T09:39:28;10.87;;;9.00;;
8060;SDS011;4073;42.626;25.386;2023-07-02T09:41:55;16.03;;;11.17;;
8060;SDS011;4073;42.626;25.386;2023-07-02T09:44:43;18.07;;;11.47;;
8060;SDS011;4073;42.626;25.386;2023-07-02T09:47:08;30.43;;;22.23;;
8060;SDS011;4073;42.626;25.386;2023-07-02T09:49:38;8.60;;;7.80;;
8060;SDS011;4073;42.626;25.386;2023-07-02T09:54:31;8.47;;;7.70;;
8060;SDS011;4073;42.626;25.386;2023-07-02T09:56:58;7.73;;;7.03;;
8060;SDS011;4073;42.626;25.386;2023-07-02T09:59:24;8.60;;;7.80;;
8060;SDS011;4073;42.626;25.386;2023-07-02T10:01:50;7.77;;;7.17;;
8060;SDS011;4073;42.626;25.386;2023-07-02T10:04:16;8.17;;;7.37;;
8060;SDS011;4073;42.626;25.386;2023-07-02T10:06:50;8.50;;;7.40;;
8060;SDS011;4073;42.626;25.386;2023-07-02T10:09:17;7.57;;;6.87;;
8060;SDS011;4073;42.626;25.386;2023-07-02T10:11:43;10.87;;;7.27;;
8060;SDS011;4073;42.626;25.386;2023-07-02T10:14:10;9.00;;;8.13;;
8060;SDS011;4073;42.626;25.386;2023-07-02T10:16:52;10.77;;;9.33;;
8060;SDS011;4073;42.626;25.386;2023-07-02T10:19:19;9.00;;;8.10;;
8060;SDS011;4073;42.626;25.386;2023-07-02T10:21:45;7.73;;;7.00;;
8060;SDS011;4073;42.626;25.386;2023-07-02T10:29:30;28.83;;;23.90;;
8060;SDS011;4073;42.626;25.386;2023-07-02T10:31:56;9.60;;;8.43;;
8060;SDS011;4073;42.626;25.386;2023-07-02T10:34:32;13.70;;;11.53;;
8060;SDS011;4073;42.626;25.386;2023-07-02T10:37:01;10.90;;;9.53;;
8060;SDS011;4073;42.626;25.386;2023-07-02T10:39:28;11.73;;;10.27;;
8060;SDS011;4073;42.626;25.386;2023-07-02T10:42:04;26.03;;;22.27;;
8060;SDS011;4073;42.626;25.386;2023-07-02T10:44:30;9.83;;;8.60;;
8060;SDS011;4073;42.626;25.386;2023-07-02T10:46:57;8.87;;;7.20;;
8060;SDS011;4073;42.626;25.386;2023-07-02T10:49:29;9.50;;;7.20;;
8060;SDS011;4073;42.626;25.386;2023-07-02T10:51:56;14.47;;;9.73;;
8060;SDS011;4073;42.626;25.386;2023-07-02T10:54:25;9.63;;;7.53;;
8060;SDS011;4073;42.626;25.386;2023-07-02T10:56:56;9.43;;;7.63;;
8060;SDS011;4073;42.626;25.386;2023-07-02T10:59:25;9.37;;;7.50;;
8060;SDS011;4073;42.626;25.386;2023-07-02T11:01:51;11.93;;;8.20;;
8060;SDS011;4073;42.626;25.386;2023-07-02T11:04:16;10.87;;;8.40;;
8060;SDS011;4073;42.626;25.386;2023-07-02T11:06:42;12.97;;;9.70;;
8060;SDS011;4073;42.626;25.386;2023-07-02T11:09:17;11.90;;;9.90;;
8060;SDS011;4073;42.626;25.386;2023-07-02T11:11:53;8.33;;;7.00;;
8060;SDS011;4073;42.626;25.386;2023-07-02T11:14:32;8.53;;;7.40;;
8060;SDS011;4073;42.626;25.386;2023-07-02T11:16:59;10.03;;;8.73;;
8060;SDS011;4073;42.626;25.386;2023-07-02T11:19:30;12.10;;;10.90;;
8060;SDS011;4073;42.626;25.386;2023-07-02T11:21:59;10.60;;;8.97;;
8060;SDS011;4073;42.626;25.386;2023-07-02T11:24:32;9.77;;;7.83;;
8060;SDS011;4073;42.626;25.386;2023-07-02T11:26:59;10.40;;;7.47;;
8060;SDS011;4073;42.626;25.386;2023-07-02T11:29:26;7.47;;;6.47;;
8060;SDS011;4073;42.626;25.386;2023-07-02T11:31:54;6.93;;;6.13;;
8060;SDS011;4073;42.626;25.386;2023-07-02T11:34:22;8.50;;;6.97;;
8060;SDS011;4073;42.626;25.386;2023-07-02T11:36:48;7.47;;;6.70;;
8060;SDS011;4073;42.626;25.386;2023-07-02T11:39:14;7.13;;;6.40;;
8060;SDS011;4073;42.626;25.386;2023-07-02T11:41:44;8.27;;;7.43;;
8060;SDS011;4073;42.626;25.386;2023-07-02T11:44:11;7.27;;;5.80;;
8060;SDS011;4073;42.626;25.386;2023-07-02T11:46:36;8.57;;;6.37;;
8060;SDS011;4073;42.626;25.386;2023-07-02T11:49:02;7.60;;;6.90;;
8060;SDS011;4073;42.626;25.386;2023-07-02T11:51:35;7.67;;;6.77;;
8060;SDS011;4073;42.626;25.386;2023-07-02T11:54:02;6.80;;;6.20;;
8060;SDS011;4073;42.626;25.386;2023-07-02T11:56:28;7.13;;;6.43;;
8060;SDS011;4073;42.626;25.386;2023-07-02T11:58:53;8.43;;;6.57;;
8060;SDS011;4073;42.626;25.386;2023-07-02T12:01:19;7.60;;;6.27;;
8060;SDS011;4073;42.626;25.386;2023-07-02T12:03:44;10.37;;;5.77;;
8060;SDS011;4073;42.626;25.386;2023-07-02T12:06:10;7.20;;;5.37;;
8060;SDS011;4073;42.626;25.386;2023-07-02T12:08:36;6.80;;;5.80;;
8060;SDS011;4073;42.626;25.386;2023-07-02T12:11:01;7.30;;;6.00;;
8060;SDS011;4073;42.626;25.386;2023-07-02T12:13:26;18.87;;;6.93;;
8060;SDS011;4073;42.626;25.386;2023-07-02T12:15:52;6.27;;;5.67;;
8060;SDS011;4073;42.626;25.386;2023-07-02T12:18:17;7.10;;;6.10;;
8060;SDS011;4073;42.626;25.386;2023-07-02T12:20:43;7.53;;;6.43;;
8060;SDS011;4073;42.626;25.386;2023-07-02T12:23:08;7.00;;;6.30;;
8060;SDS011;4073;42.626;25.386;2023-07-02T12:25:35;8.70;;;6.70;;
8060;SDS011;4073;42.626;25.386;2023-07-02T12:28:04;5.97;;;5.03;;
8060;SDS011;4073;42.626;25.386;2023-07-02T12:30:30;6.17;;;5.57;;
8060;SDS011;4073;42.626;25.386;2023-07-02T12:32:56;6.13;;;5.57;;
8060;SDS011;4073;42.626;25.386;2023-07-02T12:35:21;6.70;;;5.47;;
8060;SDS011;4073;42.626;25.386;2023-07-02T12:37:48;4.73;;;4.03;;
8060;SDS011;4073;42.626;25.386;2023-07-02T12:40:15;5.83;;;5.23;;
8060;SDS011;4073;42.626;25.386;2023-07-02T12:42:41;6.20;;;5.37;;
8060;SDS011;4073;42.626;25.386;2023-07-02T12:45:07;7.37;;;5.33;;
8060;SDS011;4073;42.626;25.386;2023-07-02T12:47:34;6.53;;;5.93;;
8060;SDS011;4073;42.626;25.386;2023-07-02T12:49:59;8.13;;;6.77;;
8060;SDS011;4073;42.626;25.386;2023-07-02T12:52:25;7.43;;;6.43;;
8060;SDS011;4073;42.626;25.386;2023-07-02T12:54:50;7.10;;;6.40;;
8060;SDS011;4073;42.626;25.386;2023-07-02T12:57:16;7.30;;;6.20;;
8060;SDS011;4073;42.626;25.386;2023-07-02T12:59:43;8.40;;;7.60;;
8060;SDS011;4073;42.626;25.386;2023-07-02T13:02:09;7.70;;;6.43;;
8060;SDS011;4073;42.626;25.386;2023-07-02T13:04:35;6.63;;;5.93;;
8060;SDS011;4073;42.626;25.386;2023-07-02T13:07:00;8.03;;;7.23;;
8060;SDS011;4073;42.626;25.386;2023-07-02T13:09:26;8.93;;;6.77;;
8060;SDS011;4073;42.626;25.386;2023-07-02T13:11:51;7.93;;;6.67;;
8060;SDS011;4073;42.626;25.386;2023-07-02T13:14:17;10.73;;;7.37;;
8060;SDS011;4073;42.626;25.386;2023-07-02T13:16:42;7.40;;;6.70;;
8060;SDS011;4073;42.626;25.386;2023-07-02T13:19:08;8.27;;;6.70;;
8060;SDS011;4073;42.626;25.386;2023-07-02T13:21:33;7.07;;;6.37;;
8060;SDS011;4073;42.626;25.386;2023-07-02T13:23:58;9.07;;;6.90;;
8060;SDS011;4073;42.626;25.386;2023-07-02T13:26:24;7.97;;;6.50;;
8060;SDS011;4073;42.626;25.386;2023-07-02T13:28:49;10.03;;;6.83;;
8060;SDS011;4073;42.626;25.386;2023-07-02T13:31:15;10.63;;;6.87;;
8060;SDS011;4073;42.626;25.386;2023-07-02T13:33:41;12.70;;;6.70;;
8060;SDS011;4073;42.626;25.386;2023-07-02T13:36:07;7.53;;;6.70;;
8060;SDS011;4073;42.626;25.386;2023-07-02T13:38:33;8.20;;;6.50;;
8060;SDS011;4073;42.626;25.386;2023-07-02T13:40:59;9.27;;;7.30;;
8060;SDS011;4073;42.626;25.386;2023-07-02T13:43:25;8.13;;;6.43;;
8060;SDS011;4073;42.626;25.386;2023-07-02T13:45:51;8.50;;;7.47;;
8060;SDS011;4073;42.626;25.386;2023-07-02T13:48:17;9.23;;;7.53;;
8060;SDS011;4073;42.626;25.386;2023-07-02T13:50:42;8.33;;;7.53;;
8060;SDS011;4073;42.626;25.386;2023-07-02T13:53:08;8.10;;;7.07;;
8060;SDS011;4073;42.626;25.386;2023-07-02T13:55:34;9.03;;;7.50;;
8060;SDS011;4073;42.626;25.386;2023-07-02T13:57:59;8.13;;;6.93;;
8060;SDS011;4073;42.626;25.386;2023-07-02T14:00:28;7.67;;;6.63;;
8060;SDS011;4073;42.626;25.386;2023-07-02T14:02:54;9.47;;;7.10;;
8060;SDS011;4073;42.626;25.386;2023-07-02T14:05:20;8.60;;;7.00;;
8060;SDS011;4073;42.626;25.386;2023-07-02T14:07:46;8.00;;;6.73;;
8060;SDS011;4073;42.626;25.386;2023-07-02T14:10:11;7.93;;;7.10;;
8060;SDS011;4073;42.626;25.386;2023-07-02T14:12:38;8.80;;;7.37;;
8060;SDS011;4073;42.626;25.386;2023-07-02T14:15:05;7.87;;;6.80;;
8060;SDS011;4073;42.626;25.386;2023-07-02T14:17:31;7.80;;;7.10;;
8060;SDS011;4073;42.626;25.386;2023-07-02T14:19:56;8.40;;;6.33;;
8060;SDS011;4073;42.626;25.386;2023-07-02T14:22:22;8.40;;;7.57;;
8060;SDS011;4073;42.626;25.386;2023-07-02T14:24:48;8.97;;;7.20;;
8060;SDS011;4073;42.626;25.386;2023-07-02T14:27:13;8.67;;;7.73;;
8060;SDS011;4073;42.626;25.386;2023-07-02T14:29:39;8.90;;;7.77;;
8060;SDS011;4073;42.626;25.386;2023-07-02T14:32:05;8.87;;;7.97;;
8060;SDS011;4073;42.626;25.386;2023-07-02T14:34:30;10.00;;;8.67;;
8060;SDS011;4073;42.626;25.386;2023-07-02T14:36:56;9.37;;;7.70;;
8060;SDS011;4073;42.626;25.386;2023-07-02T14:39:23;9.63;;;7.30;;
8060;SDS011;4073;42.626;25.386;2023-07-02T14:41:49;7.93;;;7.13;;
8060;SDS011;4073;42.626;25.386;2023-07-02T14:44:14;8.23;;;7.40;;
8060;SDS011;4073;42.626;25.386;2023-07-02T14:46:40;8.10;;;7.40;;
8060;SDS011;4073;42.626;25.386;2023-07-02T14:49:07;9.10;;;7.40;;
8060;SDS011;4073;42.626;25.386;2023-07-02T14:51:33;9.03;;;7.90;;
8060;SDS011;4073;42.626;25.386;2023-07-02T14:53:58;8.90;;;8.00;;
8060;SDS011;4073;42.626;25.386;2023-07-02T14:56:24;8.03;;;7.20;;
8060;SDS011;4073;42.626;25.386;2023-07-02T14:58:49;9.90;;;8.00;;